< Typhoon 196426 1964 Season Typhoon 196428 >
Typhoon 196427 (HOPE)
General InformationTrack Information on Google Maps || Disaster Info.ResourceGoogle EarthGE AnimationAtom FeedGeoJSON
Detalied Best Track (Time Zone = UTC)
Year Month Day Hour Lat. Long. Pressure (hPa) Wind (kt) Class Image Chart
1964 10 24 00 14.1 141.5 1004 0 2 -- Chart
1964 10 24 06 14.7 141.4 1004 0 2 -- Chart
1964 10 24 12 15.1 140.3 1004 0 2 -- Chart
1964 10 24 18 15.5 139.3 1002 0 2 -- Chart
1964 10 25 00 15.6 138.1 1002 0 2 -- Chart
1964 10 25 06 15.9 137.2 1000 0 2 -- Chart
1964 10 25 12 16.4 137.0 1000 0 2 -- Chart
1964 10 25 18 16.7 136.8 1000 0 2 -- Chart
1964 10 26 00 17.3 136.6 1000 0 2 -- Chart
1964 10 26 06 17.8 136.4 1000 0 2 -- Chart
1964 10 26 12 18.5 136.2 996 0 2 -- Chart
1964 10 26 18 19.4 135.8 996 0 9 -- Chart
1964 10 27 00 20.7 135.8 996 0 9 -- Chart
1964 10 27 06 21.0 136.0 994 0 9 -- Chart
1964 10 27 12 22.0 136.6 990 0 9 -- Chart
1964 10 27 18 23.5 137.5 985 0 9 -- Chart
1964 10 28 00 24.5 138.5 980 0 9 -- Chart
1964 10 28 06 26.5 139.8 975 0 9 -- Chart
1964 10 28 12 28.2 141.7 975 0 9 -- Chart
1964 10 28 18 29.7 143.5 975 0 9 -- Chart
1964 10 29 00 31.0 145.8 980 0 9 -- Chart
1964 10 29 06 32.6 147.9 990 0 9 -- Chart
1964 10 29 12 34.5 151.0 996 0 9 -- Chart
1964 10 29 18 37.0 155.0 996 0 9 -- Chart
1964 10 30 00 38.6 160.0 1000 0 2 -- Chart
1964 10 30 06 40.4 165.0 1002 0 2 -- Chart
1964 10 30 12 42.0 170.6 1004 0 2 -- Chart
1964 10 30 18 43.4 176.7 1006 0 2 -- Chart
Japan Meteorological Agency Best Track Data | Correction Date : 1990-10-17
< Typhoon 196426 1964 Season Typhoon 196428 >

Help